sensor_id;sensor_type;location;lat;lon;timestamp;pressure;altitude;pressure_sealevel;temperature
82297;BMP280;71899;51.992;8.648;2024-01-07T00:01:14;100222.00;;;2.14
82297;BMP280;71899;51.992;8.648;2024-01-07T00:03:42;100221.78;;;2.22
82297;BMP280;71899;51.992;8.648;2024-01-07T00:06:08;100221.97;;;2.16
82297;BMP280;71899;51.992;8.648;2024-01-07T00:08:34;100226.56;;;2.05
82297;BMP280;71899;51.992;8.648;2024-01-07T00:11:00;100229.63;;;2.19
82297;BMP280;71899;51.992;8.648;2024-01-07T00:13:25;100229.53;;;2.22
82297;BMP280;71899;51.992;8.648;2024-01-07T00:15:50;100233.78;;;2.24
82297;BMP280;71899;51.992;8.648;2024-01-07T00:18:16;100244.03;;;1.95
82297;BMP280;71899;51.992;8.648;2024-01-07T00:20:41;100249.84;;;2.03
82297;BMP280;71899;51.992;8.648;2024-01-07T00:23:06;100245.31;;;2.11
82297;BMP280;71899;51.992;8.648;2024-01-07T00:25:32;100256.22;;;2.21
82297;BMP280;71899;51.992;8.648;2024-01-07T00:27:57;100255.06;;;2.31
82297;BMP280;71899;51.992;8.648;2024-01-07T00:30:22;100262.81;;;2.31
82297;BMP280;71899;51.992;8.648;2024-01-07T00:32:48;100267.75;;;2.08
82297;BMP280;71899;51.992;8.648;2024-01-07T00:35:16;100264.38;;;2.06
82297;BMP280;71899;51.992;8.648;2024-01-07T00:37:41;100267.84;;;2.05
82297;BMP280;71899;51.992;8.648;2024-01-07T00:40:07;100267.63;;;2.12
82297;BMP280;71899;51.992;8.648;2024-01-07T00:42:33;100266.41;;;2.25
82297;BMP280;71899;51.992;8.648;2024-01-07T00:44:58;100267.72;;;2.09
82297;BMP280;71899;51.992;8.648;2024-01-07T00:47:23;100274.81;;;2.01
82297;BMP280;71899;51.992;8.648;2024-01-07T00:49:49;100268.03;;;1.97
82297;BMP280;71899;51.992;8.648;2024-01-07T00:52:15;100272.59;;;2.18
82297;BMP280;71899;51.992;8.648;2024-01-07T00:54:40;100271.38;;;2.00
82297;BMP280;71899;51.992;8.648;2024-01-07T00:57:05;100274.78;;;2.03
82297;BMP280;71899;51.992;8.648;2024-01-07T00:59:31;100269.56;;;2.04
82297;BMP280;71899;51.992;8.648;2024-01-07T01:01:56;100273.16;;;2.29
82297;BMP280;71899;51.992;8.648;2024-01-07T01:04:22;100278.75;;;2.45
82297;BMP280;71899;51.992;8.648;2024-01-07T01:06:47;100288.56;;;2.63
82297;BMP280;71899;51.992;8.648;2024-01-07T01:09:12;100290.56;;;2.23
82297;BMP280;71899;51.992;8.648;2024-01-07T01:11:38;100293.09;;;2.24
82297;BMP280;71899;51.992;8.648;2024-01-07T01:14:03;100296.56;;;2.23
82297;BMP280;71899;51.992;8.648;2024-01-07T01:16:28;100300.00;;;2.24
82297;BMP280;71899;51.992;8.648;2024-01-07T01:18:54;100300.94;;;1.87
82297;BMP280;71899;51.992;8.648;2024-01-07T01:21:19;100296.31;;;2.00
82297;BMP280;71899;51.992;8.648;2024-01-07T01:23:46;100306.78;;;1.94
82297;BMP280;71899;51.992;8.648;2024-01-07T01:26:12;100305.31;;;1.85
82297;BMP280;71899;51.992;8.648;2024-01-07T01:28:37;100306.88;;;1.91
82297;BMP280;71899;51.992;8.648;2024-01-07T01:31:02;100310.47;;;1.85
82297;BMP280;71899;51.992;8.648;2024-01-07T01:33:28;100308.59;;;1.90
82297;BMP280;71899;51.992;8.648;2024-01-07T01:35:54;100315.94;;;1.72
82297;BMP280;71899;51.992;8.648;2024-01-07T01:38:19;100323.69;;;1.72
82297;BMP280;71899;51.992;8.648;2024-01-07T01:40:51;100325.41;;;2.05
82297;BMP280;71899;51.992;8.648;2024-01-07T01:43:24;100327.69;;;2.17
82297;BMP280;71899;51.992;8.648;2024-01-07T01:45:51;100326.81;;;2.17
82297;BMP280;71899;51.992;8.648;2024-01-07T01:48:16;100335.91;;;1.97
82297;BMP280;71899;51.992;8.648;2024-01-07T01:50:41;100340.34;;;1.92
82297;BMP280;71899;51.992;8.648;2024-01-07T01:53:07;100344.84;;;1.84
82297;BMP280;71899;51.992;8.648;2024-01-07T01:55:33;100342.88;;;1.94
82297;BMP280;71899;51.992;8.648;2024-01-07T01:58:00;100346.03;;;2.05
82297;BMP280;71899;51.992;8.648;2024-01-07T02:00:30;100349.06;;;1.88
82297;BMP280;71899;51.992;8.648;2024-01-07T02:02:56;100349.69;;;1.96
82297;BMP280;71899;51.992;8.648;2024-01-07T02:05:22;100347.47;;;2.17
82297;BMP280;71899;51.992;8.648;2024-01-07T02:07:48;100352.44;;;1.90
82297;BMP280;71899;51.992;8.648;2024-01-07T02:10:14;100351.75;;;1.84
82297;BMP280;71899;51.992;8.648;2024-01-07T02:12:39;100362.16;;;1.79
82297;BMP280;71899;51.992;8.648;2024-01-07T02:15:05;100363.25;;;1.69
82297;BMP280;71899;51.992;8.648;2024-01-07T02:17:31;100362.28;;;1.38
82297;BMP280;71899;51.992;8.648;2024-01-07T02:19:56;100365.19;;;1.24
82297;BMP280;71899;51.992;8.648;2024-01-07T02:22:22;100369.16;;;1.39
82297;BMP280;71899;51.992;8.648;2024-01-07T02:24:47;100372.03;;;1.62
82297;BMP280;71899;51.992;8.648;2024-01-07T02:27:12;100363.09;;;1.77
82297;BMP280;71899;51.992;8.648;2024-01-07T02:29:38;100365.75;;;1.72
82297;BMP280;71899;51.992;8.648;2024-01-07T02:32:03;100367.53;;;1.70
82297;BMP280;71899;51.992;8.648;2024-01-07T02:34:29;100378.72;;;1.69
82297;BMP280;71899;51.992;8.648;2024-01-07T02:36:54;100378.44;;;1.46
82297;BMP280;71899;51.992;8.648;2024-01-07T02:39:20;100381.38;;;1.66
82297;BMP280;71899;51.992;8.648;2024-01-07T02:41:45;100382.25;;;2.00
82297;BMP280;71899;51.992;8.648;2024-01-07T02:44:11;100395.19;;;1.64
82297;BMP280;71899;51.992;8.648;2024-01-07T02:46:36;100387.75;;;1.50
82297;BMP280;71899;51.992;8.648;2024-01-07T02:49:02;100396.47;;;1.46
82297;BMP280;71899;51.992;8.648;2024-01-07T02:51:27;100386.06;;;1.49
82297;BMP280;71899;51.992;8.648;2024-01-07T02:53:52;100396.59;;;1.77
82297;BMP280;71899;51.992;8.648;2024-01-07T02:56:18;100398.63;;;1.99
82297;BMP280;71899;51.992;8.648;2024-01-07T02:58:43;100400.19;;;1.70
82297;BMP280;71899;51.992;8.648;2024-01-07T03:01:09;100408.97;;;1.24
82297;BMP280;71899;51.992;8.648;2024-01-07T03:03:35;100402.88;;;1.27
82297;BMP280;71899;51.992;8.648;2024-01-07T03:06:00;100403.97;;;1.17
82297;BMP280;71899;51.992;8.648;2024-01-07T03:08:26;100407.00;;;1.35
82297;BMP280;71899;51.992;8.648;2024-01-07T03:10:51;100415.28;;;1.08
82297;BMP280;71899;51.992;8.648;2024-01-07T03:13:16;100417.31;;;0.94
82297;BMP280;71899;51.992;8.648;2024-01-07T03:15:42;100417.50;;;0.85
82297;BMP280;71899;51.992;8.648;2024-01-07T03:18:07;100405.69;;;0.75
82297;BMP280;71899;51.992;8.648;2024-01-07T03:20:33;100412.44;;;0.80
82297;BMP280;71899;51.992;8.648;2024-01-07T03:23:00;100410.63;;;1.25
82297;BMP280;71899;51.992;8.648;2024-01-07T03:25:25;100412.16;;;1.35
82297;BMP280;71899;51.992;8.648;2024-01-07T03:27:51;100427.31;;;1.08
82297;BMP280;71899;51.992;8.648;2024-01-07T03:30:16;100430.38;;;0.83
82297;BMP280;71899;51.992;8.648;2024-01-07T03:32:41;100426.00;;;0.88
82297;BMP280;71899;51.992;8.648;2024-01-07T03:35:07;100432.50;;;1.06
82297;BMP280;71899;51.992;8.648;2024-01-07T03:37:34;100441.31;;;0.94
82297;BMP280;71899;51.992;8.648;2024-01-07T03:39:59;100450.16;;;0.81
82297;BMP280;71899;51.992;8.648;2024-01-07T03:42:25;100444.63;;;1.01
82297;BMP280;71899;51.992;8.648;2024-01-07T03:44:50;100455.25;;;0.83
82297;BMP280;71899;51.992;8.648;2024-01-07T03:47:15;100460.53;;;0.77
82297;BMP280;71899;51.992;8.648;2024-01-07T03:49:41;100465.41;;;0.90
82297;BMP280;71899;51.992;8.648;2024-01-07T03:52:06;100466.25;;;0.92
82297;BMP280;71899;51.992;8.648;2024-01-07T03:54:32;100466.06;;;1.00
82297;BMP280;71899;51.992;8.648;2024-01-07T03:56:57;100472.28;;;0.90
82297;BMP280;71899;51.992;8.648;2024-01-07T03:59:22;100473.00;;;0.96
82297;BMP280;71899;51.992;8.648;2024-01-07T04:01:50;100466.75;;;1.10
82297;BMP280;71899;51.992;8.648;2024-01-07T04:04:16;100480.06;;;0.87
82297;BMP280;71899;51.992;8.648;2024-01-07T04:06:41;100477.44;;;0.90
82297;BMP280;71899;51.992;8.648;2024-01-07T04:09:06;100487.22;;;1.17
82297;BMP280;71899;51.992;8.648;2024-01-07T04:11:39;100491.00;;;1.41
82297;BMP280;71899;51.992;8.648;2024-01-07T04:14:04;100490.31;;;1.33
82297;BMP280;71899;51.992;8.648;2024-01-07T04:16:31;100491.72;;;1.47
82297;BMP280;71899;51.992;8.648;2024-01-07T04:18:57;100500.09;;;1.17
82297;BMP280;71899;51.992;8.648;2024-01-07T04:21:22;100496.78;;;1.52
82297;BMP280;71899;51.992;8.648;2024-01-07T04:23:47;100501.38;;;1.38
82297;BMP280;71899;51.992;8.648;2024-01-07T04:26:13;100505.03;;;1.26
82297;BMP280;71899;51.992;8.648;2024-01-07T04:28:41;100512.03;;;1.21
82297;BMP280;71899;51.992;8.648;2024-01-07T04:31:07;100516.38;;;0.72
82297;BMP280;71899;51.992;8.648;2024-01-07T04:33:32;100515.56;;;0.70
82297;BMP280;71899;51.992;8.648;2024-01-07T04:35:57;100523.16;;;0.77
82297;BMP280;71899;51.992;8.648;2024-01-07T04:38:24;100517.34;;;0.66
82297;BMP280;71899;51.992;8.648;2024-01-07T04:40:50;100531.00;;;0.68
82297;BMP280;71899;51.992;8.648;2024-01-07T04:43:16;100531.91;;;0.66
82297;BMP280;71899;51.992;8.648;2024-01-07T04:45:42;100539.03;;;0.52
82297;BMP280;71899;51.992;8.648;2024-01-07T04:48:07;100533.38;;;0.30
82297;BMP280;71899;51.992;8.648;2024-01-07T04:50:32;100534.56;;;0.63
82297;BMP280;71899;51.992;8.648;2024-01-07T04:52:58;100543.25;;;0.54
82297;BMP280;71899;51.992;8.648;2024-01-07T04:55:23;100545.94;;;0.49
82297;BMP280;71899;51.992;8.648;2024-01-07T04:57:48;100535.94;;;0.31
82297;BMP280;71899;51.992;8.648;2024-01-07T05:00:14;100545.94;;;0.46
82297;BMP280;71899;51.992;8.648;2024-01-07T05:02:39;100549.97;;;0.63
82297;BMP280;71899;51.992;8.648;2024-01-07T05:05:05;100556.97;;;0.56
82297;BMP280;71899;51.992;8.648;2024-01-07T05:07:30;100550.03;;;0.60
82297;BMP280;71899;51.992;8.648;2024-01-07T05:09:55;100551.50;;;0.74
82297;BMP280;71899;51.992;8.648;2024-01-07T05:12:21;100551.41;;;0.79
82297;BMP280;71899;51.992;8.648;2024-01-07T05:14:46;100564.38;;;0.73
82297;BMP280;71899;51.992;8.648;2024-01-07T05:17:11;100557.16;;;0.93
82297;BMP280;71899;51.992;8.648;2024-01-07T05:19:40;100552.72;;;1.01
82297;BMP280;71899;51.992;8.648;2024-01-07T05:22:05;100554.50;;;0.97
82297;BMP280;71899;51.992;8.648;2024-01-07T05:24:31;100561.00;;;0.71
82297;BMP280;71899;51.992;8.648;2024-01-07T05:26:56;100564.31;;;0.77
82297;BMP280;71899;51.992;8.648;2024-01-07T05:29:21;100565.72;;;0.44
82297;BMP280;71899;51.992;8.648;2024-01-07T05:31:47;100565.84;;;0.37
82297;BMP280;71899;51.992;8.648;2024-01-07T05:34:12;100577.88;;;0.35
82297;BMP280;71899;51.992;8.648;2024-01-07T05:36:50;100584.22;;;0.11
82297;BMP280;71899;51.992;8.648;2024-01-07T05:39:15;100590.91;;;0.24
82297;BMP280;71899;51.992;8.648;2024-01-07T05:41:40;100593.31;;;0.35
82297;BMP280;71899;51.992;8.648;2024-01-07T05:44:06;100597.25;;;0.56
82297;BMP280;71899;51.992;8.648;2024-01-07T05:46:32;100597.03;;;0.14
82297;BMP280;71899;51.992;8.648;2024-01-07T05:48:57;100604.88;;;0.05
82297;BMP280;71899;51.992;8.648;2024-01-07T05:51:22;100607.63;;;-0.09
82297;BMP280;71899;51.992;8.648;2024-01-07T05:53:47;100608.38;;;-0.01
82297;BMP280;71899;51.992;8.648;2024-01-07T05:56:13;100616.28;;;-0.16
82297;BMP280;71899;51.992;8.648;2024-01-07T05:58:38;100624.66;;;-0.02
82297;BMP280;71899;51.992;8.648;2024-01-07T06:01:04;100622.63;;;0.22
82297;BMP280;71899;51.992;8.648;2024-01-07T06:03:29;100636.97;;;0.38
82297;BMP280;71899;51.992;8.648;2024-01-07T06:05:55;100638.00;;;0.26
82297;BMP280;71899;51.992;8.648;2024-01-07T06:08:20;100645.91;;;0.13
82297;BMP280;71899;51.992;8.648;2024-01-07T06:10:45;100648.31;;;0.22
82297;BMP280;71899;51.992;8.648;2024-01-07T06:13:11;100644.28;;;0.06
82297;BMP280;71899;51.992;8.648;2024-01-07T06:15:36;100648.50;;;0.10
82297;BMP280;71899;51.992;8.648;2024-01-07T06:18:01;100643.50;;;-0.01
82297;BMP280;71899;51.992;8.648;2024-01-07T06:20:27;100653.47;;;0.25
82297;BMP280;71899;51.992;8.648;2024-01-07T06:22:53;100658.75;;;0.11
82297;BMP280;71899;51.992;8.648;2024-01-07T06:25:18;100655.88;;;0.34
82297;BMP280;71899;51.992;8.648;2024-01-07T06:27:44;100663.75;;;0.25
82297;BMP280;71899;51.992;8.648;2024-01-07T06:30:09;100666.31;;;0.22
82297;BMP280;71899;51.992;8.648;2024-01-07T06:32:35;100661.44;;;0.04
82297;BMP280;71899;51.992;8.648;2024-01-07T06:35:00;100670.97;;;-0.06
82297;BMP280;71899;51.992;8.648;2024-01-07T06:37:26;100681.19;;;0.00
82297;BMP280;71899;51.992;8.648;2024-01-07T06:39:54;100688.41;;;0.38
82297;BMP280;71899;51.992;8.648;2024-01-07T06:42:19;100693.69;;;0.26
82297;BMP280;71899;51.992;8.648;2024-01-07T06:44:45;100691.47;;;0.00
82297;BMP280;71899;51.992;8.648;2024-01-07T06:47:10;100698.63;;;-0.26
82297;BMP280;71899;51.992;8.648;2024-01-07T06:49:35;100705.41;;;-0.19
82297;BMP280;71899;51.992;8.648;2024-01-07T06:52:00;100712.31;;;-0.26
82297;BMP280;71899;51.992;8.648;2024-01-07T06:54:26;100712.50;;;-0.45
82297;BMP280;71899;51.992;8.648;2024-01-07T06:56:51;100721.94;;;-0.46
82297;BMP280;71899;51.992;8.648;2024-01-07T06:59:17;100726.25;;;-0.48
82297;BMP280;71899;51.992;8.648;2024-01-07T07:01:42;100723.69;;;-0.48
82297;BMP280;71899;51.992;8.648;2024-01-07T07:04:07;100733.94;;;-0.46
82297;BMP280;71899;51.992;8.648;2024-01-07T07:06:33;100736.44;;;-0.42
82297;BMP280;71899;51.992;8.648;2024-01-07T07:08:59;100747.69;;;-0.52
82297;BMP280;71899;51.992;8.648;2024-01-07T07:11:24;100745.97;;;-0.50
82297;BMP280;71899;51.992;8.648;2024-01-07T07:13:50;100755.38;;;-0.51
82297;BMP280;71899;51.992;8.648;2024-01-07T07:16:15;100749.13;;;-0.22
82297;BMP280;71899;51.992;8.648;2024-01-07T07:18:40;100760.13;;;-0.14
82297;BMP280;71899;51.992;8.648;2024-01-07T07:21:06;100771.94;;;0.07
82297;BMP280;71899;51.992;8.648;2024-01-07T07:23:31;100770.34;;;-0.07
82297;BMP280;71899;51.992;8.648;2024-01-07T07:25:56;100773.75;;;-0.06
82297;BMP280;71899;51.992;8.648;2024-01-07T07:28:22;100777.19;;;-0.06
82297;BMP280;71899;51.992;8.648;2024-01-07T07:30:47;100781.59;;;-0.17
82297;BMP280;71899;51.992;8.648;2024-01-07T07:33:12;100780.81;;;-0.25
82297;BMP280;71899;51.992;8.648;2024-01-07T07:35:39;100797.06;;;-0.24
82297;BMP280;71899;51.992;8.648;2024-01-07T07:38:06;100786.81;;;-0.27
82297;BMP280;71899;51.992;8.648;2024-01-07T07:40:31;100789.44;;;-0.29
82297;BMP280;71899;51.992;8.648;2024-01-07T07:42:57;100803.06;;;-0.24
82297;BMP280;71899;51.992;8.648;2024-01-07T07:45:22;100808.13;;;-0.15
82297;BMP280;71899;51.992;8.648;2024-01-07T07:47:48;100812.34;;;-0.11
82297;BMP280;71899;51.992;8.648;2024-01-07T07:50:13;100821.81;;;-0.14
82297;BMP280;71899;51.992;8.648;2024-01-07T07:52:38;100823.38;;;0.04
82297;BMP280;71899;51.992;8.648;2024-01-07T07:55:04;100823.28;;;0.14
82297;BMP280;71899;51.992;8.648;2024-01-07T07:57:32;100826.66;;;0.15
82297;BMP280;71899;51.992;8.648;2024-01-07T07:59:57;100828.66;;;-0.12
82297;BMP280;71899;51.992;8.648;2024-01-07T08:02:22;100838.22;;;-0.26
82297;BMP280;71899;51.992;8.648;2024-01-07T08:04:48;100844.78;;;0.04
82297;BMP280;71899;51.992;8.648;2024-01-07T08:07:13;100844.09;;;-0.12
82297;BMP280;71899;51.992;8.648;2024-01-07T08:09:39;100849.41;;;-0.33
82297;BMP280;71899;51.992;8.648;2024-01-07T08:12:05;100850.31;;;-0.41
82297;BMP280;71899;51.992;8.648;2024-01-07T08:14:31;100858.91;;;-0.45
82297;BMP280;71899;51.992;8.648;2024-01-07T08:16:57;100856.41;;;-0.52
82297;BMP280;71899;51.992;8.648;2024-01-07T08:19:22;100880.41;;;-0.57
82297;BMP280;71899;51.992;8.648;2024-01-07T08:21:47;100878.66;;;-0.57
82297;BMP280;71899;51.992;8.648;2024-01-07T08:24:13;100880.41;;;-0.60
82297;BMP280;71899;51.992;8.648;2024-01-07T08:26:38;100886.31;;;-0.47
82297;BMP280;71899;51.992;8.648;2024-01-07T08:29:04;100892.31;;;-0.44
82297;BMP280;71899;51.992;8.648;2024-01-07T08:31:29;100897.47;;;-0.48
82297;BMP280;71899;51.992;8.648;2024-01-07T08:33:55;100902.72;;;-0.70
82297;BMP280;71899;51.992;8.648;2024-01-07T08:36:20;100908.75;;;-0.78
82297;BMP280;71899;51.992;8.648;2024-01-07T08:38:46;100910.53;;;-0.86
82297;BMP280;71899;51.992;8.648;2024-01-07T08:41:11;100921.63;;;-0.83
82297;BMP280;71899;51.992;8.648;2024-01-07T08:43:37;100925.00;;;-0.78
82297;BMP280;71899;51.992;8.648;2024-01-07T08:46:03;100936.22;;;-0.94
82297;BMP280;71899;51.992;8.648;2024-01-07T08:48:29;100937.94;;;-0.94
82297;BMP280;71899;51.992;8.648;2024-01-07T08:50:55;100943.84;;;-0.80
82297;BMP280;71899;51.992;8.648;2024-01-07T08:53:20;100949.84;;;-0.77
82297;BMP280;71899;51.992;8.648;2024-01-07T08:55:47;100945.50;;;-0.66
82297;BMP280;71899;51.992;8.648;2024-01-07T08:58:13;100953.19;;;-0.67
82297;BMP280;71899;51.992;8.648;2024-01-07T09:00:39;100952.34;;;-0.66
82297;BMP280;71899;51.992;8.648;2024-01-07T09:03:05;100956.69;;;-0.82
82297;BMP280;71899;51.992;8.648;2024-01-07T09:05:32;100967.88;;;-0.92
82297;BMP280;71899;51.992;8.648;2024-01-07T09:07:57;100977.19;;;-0.68
82297;BMP280;71899;51.992;8.648;2024-01-07T09:10:22;100979.69;;;-0.56
82297;BMP280;71899;51.992;8.648;2024-01-07T09:12:50;100977.22;;;-0.76
82297;BMP280;71899;51.992;8.648;2024-01-07T09:15:18;100981.56;;;-0.94
82297;BMP280;71899;51.992;8.648;2024-01-07T09:17:43;100976.34;;;-0.69
82297;BMP280;71899;51.992;8.648;2024-01-07T13:48:19;101110.56;;;-0.26
82297;BMP280;71899;51.992;8.648;2024-01-07T13:50:44;101111.94;;;0.39
82297;BMP280;71899;51.992;8.648;2024-01-07T13:53:11;101109.16;;;0.63
82297;BMP280;71899;51.992;8.648;2024-01-07T13:55:36;101108.44;;;0.46
82297;BMP280;71899;51.992;8.648;2024-01-07T13:58:01;101114.38;;;0.56
82297;BMP280;71899;51.992;8.648;2024-01-07T14:00:27;101114.97;;;0.86
82297;BMP280;71899;51.992;8.648;2024-01-07T14:02:53;101116.59;;;0.99
82297;BMP280;71899;51.992;8.648;2024-01-07T14:05:19;101117.34;;;1.09
82297;BMP280;71899;51.992;8.648;2024-01-07T14:07:44;101121.81;;;0.87
82297;BMP280;71899;51.992;8.648;2024-01-07T14:10:10;101116.91;;;0.60
82297;BMP280;71899;51.992;8.648;2024-01-07T14:12:35;101124.59;;;0.63
82297;BMP280;71899;51.992;8.648;2024-01-07T14:15:00;101129.66;;;0.72
82297;BMP280;71899;51.992;8.648;2024-01-07T14:17:26;101128.94;;;0.57
82297;BMP280;71899;51.992;8.648;2024-01-07T14:19:51;101128.00;;;0.65
82297;BMP280;71899;51.992;8.648;2024-01-07T14:22:19;101132.28;;;0.68
82297;BMP280;71899;51.992;8.648;2024-01-07T14:24:45;101133.94;;;0.76
82297;BMP280;71899;51.992;8.648;2024-01-07T14:27:11;101132.03;;;0.98
82297;BMP280;71899;51.992;8.648;2024-01-07T14:29:37;101130.34;;;0.94
82297;BMP280;71899;51.992;8.648;2024-01-07T14:32:04;101133.00;;;0.85
82297;BMP280;71899;51.992;8.648;2024-01-07T14:34:29;101142.41;;;0.87
82297;BMP280;71899;51.992;8.648;2024-01-07T14:36:55;101139.59;;;1.16
82297;BMP280;71899;51.992;8.648;2024-01-07T14:39:20;101142.13;;;1.21
82297;BMP280;71899;51.992;8.648;2024-01-07T14:41:46;101139.72;;;1.03
82297;BMP280;71899;51.992;8.648;2024-01-07T14:44:12;101149.34;;;0.79
82297;BMP280;71899;51.992;8.648;2024-01-07T14:46:38;101155.28;;;0.86
82297;BMP280;71899;51.992;8.648;2024-01-07T14:49:03;101150.16;;;0.83
82297;BMP280;71899;51.992;8.648;2024-01-07T14:51:29;101167.53;;;0.57
82297;BMP280;71899;51.992;8.648;2024-01-07T14:53:56;101165.91;;;0.42
82297;BMP280;71899;51.992;8.648;2024-01-07T14:56:21;101165.06;;;0.37
82297;BMP280;71899;51.992;8.648;2024-01-07T14:58:48;101166.50;;;0.82
82297;BMP280;71899;51.992;8.648;2024-01-07T15:01:13;101169.56;;;1.22
82297;BMP280;71899;51.992;8.648;2024-01-07T15:03:39;101173.94;;;1.17
82297;BMP280;71899;51.992;8.648;2024-01-07T15:06:05;101173.91;;;1.18
82297;BMP280;71899;51.992;8.648;2024-01-07T15:08:30;101166.16;;;1.20
82297;BMP280;71899;51.992;8.648;2024-01-07T15:10:55;101171.56;;;0.89
82297;BMP280;71899;51.992;8.648;2024-01-07T15:13:20;101173.06;;;1.15
82297;BMP280;71899;51.992;8.648;2024-01-07T15:15:47;101174.84;;;1.10
82297;BMP280;71899;51.992;8.648;2024-01-07T15:18:13;101180.94;;;0.96
82297;BMP280;71899;51.992;8.648;2024-01-07T15:20:39;101184.34;;;1.03
82297;BMP280;71899;51.992;8.648;2024-01-07T15:23:04;101190.34;;;1.07
82297;BMP280;71899;51.992;8.648;2024-01-07T15:25:29;101196.56;;;0.75
82297;BMP280;71899;51.992;8.648;2024-01-07T15:27:55;101202.75;;;0.45
82297;BMP280;71899;51.992;8.648;2024-01-07T15:30:20;101206.13;;;0.55
82297;BMP280;71899;51.992;8.648;2024-01-07T15:32:46;101210.47;;;0.48
82297;BMP280;71899;51.992;8.648;2024-01-07T15:35:14;101210.41;;;0.58
82297;BMP280;71899;51.992;8.648;2024-01-07T15:37:39;101210.44;;;0.52
82297;BMP280;71899;51.992;8.648;2024-01-07T15:40:05;101216.28;;;0.76
82297;BMP280;71899;51.992;8.648;2024-01-07T15:42:31;101212.03;;;0.72
82297;BMP280;71899;51.992;8.648;2024-01-07T15:44:56;101219.72;;;0.77
82297;BMP280;71899;51.992;8.648;2024-01-07T15:47:21;101220.72;;;0.50
82297;BMP280;71899;51.992;8.648;2024-01-07T15:49:48;101227.72;;;0.27
82297;BMP280;71899;51.992;8.648;2024-01-07T15:52:13;101222.66;;;0.04
82297;BMP280;71899;51.992;8.648;2024-01-07T15:54:39;101229.44;;;0.26
82297;BMP280;71899;51.992;8.648;2024-01-07T15:57:04;101221.75;;;0.19
82297;BMP280;71899;51.992;8.648;2024-01-07T15:59:31;101228.53;;;0.35
82297;BMP280;71899;51.992;8.648;2024-01-07T16:01:56;101233.72;;;0.27
82297;BMP280;71899;51.992;8.648;2024-01-07T16:04:21;101233.75;;;0.20
82297;BMP280;71899;51.992;8.648;2024-01-07T16:06:47;101238.06;;;0.18
82297;BMP280;71899;51.992;8.648;2024-01-07T16:09:14;101241.47;;;0.15
82297;BMP280;71899;51.992;8.648;2024-01-07T16:11:39;101239.81;;;0.07
82297;BMP280;71899;51.992;8.648;2024-01-07T16:14:05;101237.16;;;0.19
82297;BMP280;71899;51.992;8.648;2024-01-07T16:16:30;101247.44;;;0.26
82297;BMP280;71899;51.992;8.648;2024-01-07T16:18:57;101251.78;;;0.09
82297;BMP280;71899;51.992;8.648;2024-01-07T16:21:22;101254.38;;;0.05
82297;BMP280;71899;51.992;8.648;2024-01-07T16:23:48;101250.06;;;0.14
82297;BMP280;71899;51.992;8.648;2024-01-07T16:26:16;101266.28;;;0.22
82297;BMP280;71899;51.992;8.648;2024-01-07T16:28:42;101262.09;;;0.06
82297;BMP280;71899;51.992;8.648;2024-01-07T16:31:08;101264.63;;;0.12
82297;BMP280;71899;51.992;8.648;2024-01-07T16:33:34;101265.50;;;0.08
82297;BMP280;71899;51.992;8.648;2024-01-07T16:36:00;101277.50;;;0.06
82297;BMP280;71899;51.992;8.648;2024-01-07T16:38:26;101282.66;;;0.03
82297;BMP280;71899;51.992;8.648;2024-01-07T16:40:51;101287.84;;;-0.20
82297;BMP280;71899;51.992;8.648;2024-01-07T16:43:16;101281.00;;;-0.27
82297;BMP280;71899;51.992;8.648;2024-01-07T16:45:42;101284.44;;;-0.37
82297;BMP280;71899;51.992;8.648;2024-01-07T16:48:07;101288.72;;;-0.45
82297;BMP280;71899;51.992;8.648;2024-01-07T16:50:32;101284.44;;;-0.31
82297;BMP280;71899;51.992;8.648;2024-01-07T16:52:58;101287.03;;;-0.55
82297;BMP280;71899;51.992;8.648;2024-01-07T16:55:23;101290.44;;;-0.83
82297;BMP280;71899;51.992;8.648;2024-01-07T16:57:49;101288.72;;;-0.93
82297;BMP280;71899;51.992;8.648;2024-01-07T17:00:14;101292.09;;;-0.96
82297;BMP280;71899;51.992;8.648;2024-01-07T17:02:44;101296.41;;;-1.04
82297;BMP280;71899;51.992;8.648;2024-01-07T17:05:10;101302.41;;;-0.94
82297;BMP280;71899;51.992;8.648;2024-01-07T17:07:35;101298.09;;;-0.92
82297;BMP280;71899;51.992;8.648;2024-01-07T17:10:03;101303.22;;;-1.12
82297;BMP280;71899;51.992;8.648;2024-01-07T17:12:28;101298.94;;;-1.10
82297;BMP280;71899;51.992;8.648;2024-01-07T17:14:54;101315.19;;;-1.16
82297;BMP280;71899;51.992;8.648;2024-01-07T17:17:19;101316.94;;;-1.04
82297;BMP280;71899;51.992;8.648;2024-01-07T17:23:39;101326.22;;;-1.41
82297;BMP280;71899;51.992;8.648;2024-01-07T17:26:04;101326.28;;;-1.23
82297;BMP280;71899;51.992;8.648;2024-01-07T17:28:30;101334.84;;;-1.16
82297;BMP280;71899;51.992;8.648;2024-01-07T17:38:43;101339.91;;;-1.40
82297;BMP280;71899;51.992;8.648;2024-01-07T17:41:08;101337.38;;;-1.36
82297;BMP280;71899;51.992;8.648;2024-01-07T17:43:35;101337.31;;;-1.46
82297;BMP280;71899;51.992;8.648;2024-01-07T17:46:01;101339.06;;;-1.35
82297;BMP280;71899;51.992;8.648;2024-01-07T17:48:27;101348.47;;;-1.31
82297;BMP280;71899;51.992;8.648;2024-01-07T17:50:52;101342.56;;;-1.12
82297;BMP280;71899;51.992;8.648;2024-01-07T17:53:18;101341.72;;;-1.05
82297;BMP280;71899;51.992;8.648;2024-01-07T17:55:43;101345.13;;;-1.12
82297;BMP280;71899;51.992;8.648;2024-01-07T17:58:09;101344.22;;;-1.26
82297;BMP280;71899;51.992;8.648;2024-01-07T18:00:34;101349.34;;;-1.29
82297;BMP280;71899;51.992;8.648;2024-01-07T18:03:00;101347.59;;;-1.34
82297;BMP280;71899;51.992;8.648;2024-01-07T18:05:34;101354.56;;;-1.11
82297;BMP280;71899;51.992;8.648;2024-01-07T18:08:01;101346.88;;;-0.97
82297;BMP280;71899;51.992;8.648;2024-01-07T18:10:27;101357.97;;;-1.03
82297;BMP280;71899;51.992;8.648;2024-01-07T18:12:52;101352.00;;;-1.05
82297;BMP280;71899;51.992;8.648;2024-01-07T18:15:17;101356.22;;;-1.17
82297;BMP280;71899;51.992;8.648;2024-01-07T18:17:43;101355.41;;;-1.07
82297;BMP280;71899;51.992;8.648;2024-01-07T18:20:11;101351.22;;;-0.76
82297;BMP280;71899;51.992;8.648;2024-01-07T18:22:38;101358.06;;;-0.72
82297;BMP280;71899;51.992;8.648;2024-01-07T19:07:08;101369.53;;;-1.94
82297;BMP280;71899;51.992;8.648;2024-01-07T19:09:33;101364.75;;;-1.27
82297;BMP280;71899;51.992;8.648;2024-01-07T19:11:58;101361.47;;;-0.84
82297;BMP280;71899;51.992;8.648;2024-01-07T19:14:24;101358.91;;;-0.60
82297;BMP280;71899;51.992;8.648;2024-01-07T19:16:49;101361.50;;;-0.60